createdAt,value
2022-09-06T00:02:28.893Z,8.57
2022-09-06T00:05:34.986Z,8.54
2022-09-06T00:08:41.201Z,8.50
2022-09-06T00:11:47.685Z,8.47
2022-09-06T00:14:53.178Z,8.41
2022-09-06T00:17:59.171Z,8.35
2022-09-06T00:21:08.155Z,8.30
2022-09-06T00:24:15.434Z,8.25
2022-09-06T00:27:43.299Z,8.23
2022-09-06T00:30:50.346Z,8.23
2022-09-06T00:33:55.767Z,8.19
2022-09-06T00:37:04.161Z,8.15
2022-09-06T00:40:10.616Z,8.08
2022-09-06T00:43:38.993Z,8.04
2022-09-06T00:46:47.179Z,8.04
2022-09-06T00:49:53.382Z,8.06
2022-09-06T00:52:59.249Z,8.04
2022-09-06T00:56:07.955Z,8.01
2022-09-06T00:59:13.881Z,8.00
2022-09-06T01:02:21.967Z,8.00
2022-09-06T01:05:28.222Z,7.94
2022-09-06T01:08:34.376Z,7.88
2022-09-06T01:11:41.324Z,7.85
2022-09-06T01:14:51.721Z,7.85
2022-09-06T01:18:16.309Z,7.87
2022-09-06T01:21:23.091Z,7.87
2022-09-06T01:24:35.097Z,7.86
2022-09-06T01:27:42.787Z,7.87
2022-09-06T01:30:49.022Z,7.87
2022-09-06T01:33:57.838Z,7.80
2022-09-06T01:37:10.213Z,7.73
2022-09-06T01:40:17.850Z,7.68
2022-09-06T01:43:24.317Z,7.62
2022-09-06T01:46:33.289Z,7.56
2022-09-06T01:49:38.571Z,7.51
2022-09-06T01:52:44.054Z,7.45
2022-09-06T01:55:49.912Z,7.44
2022-09-06T01:58:57.308Z,7.45
2022-09-06T02:02:05.809Z,7.46
2022-09-06T02:05:13.130Z,7.43
2022-09-06T02:08:20.006Z,7.38
2022-09-06T02:11:27.406Z,7.33
2022-09-06T02:14:35.507Z,7.29
2022-09-06T02:17:42.831Z,7.21
2022-09-06T02:20:48.803Z,7.17
2022-09-06T02:23:55.921Z,7.11
2022-09-06T02:27:09.804Z,7.07
2022-09-06T02:30:16.870Z,7.05
2022-09-06T02:33:24.707Z,7.04
2022-09-06T02:36:31.018Z,7.01
2022-09-06T02:39:38.492Z,7.01
2022-09-06T02:42:44.743Z,7.03
2022-09-06T02:45:50.675Z,7.03
2022-09-06T02:48:56.294Z,7.04
2022-09-06T02:52:04.308Z,7.03
2022-09-06T02:55:13.984Z,7.01
2022-09-06T02:58:19.882Z,6.99
2022-09-06T03:01:26.106Z,6.97
2022-09-06T03:04:33.980Z,6.94
2022-09-06T03:07:40.665Z,6.94
2022-09-06T03:10:49.968Z,6.91
2022-09-06T03:13:55.551Z,6.87
2022-09-06T03:17:10.330Z,6.85
2022-09-06T03:20:16.027Z,6.81
2022-09-06T03:23:23.831Z,6.78
2022-09-06T03:26:30.692Z,6.75
2022-09-06T03:29:48.481Z,6.73
2022-09-06T03:33:00.787Z,6.71
2022-09-06T03:36:08.592Z,6.69
2022-09-06T03:39:14.887Z,6.67
2022-09-06T03:42:20.805Z,6.69
2022-09-06T03:45:27.511Z,6.68
2022-09-06T03:48:34.316Z,6.65
2022-09-06T03:51:40.908Z,6.68
2022-09-06T03:54:49.762Z,6.72
2022-09-06T03:57:58.310Z,6.75
2022-09-06T04:01:05.156Z,6.72
2022-09-06T04:04:11.386Z,6.68
2022-09-06T04:07:17.194Z,6.64
2022-09-06T04:10:22.779Z,6.59
2022-09-06T04:13:32.114Z,6.60
2022-09-06T04:16:42.592Z,6.63
2022-09-06T04:19:51.517Z,6.69
2022-09-06T04:22:56.943Z,6.78
2022-09-06T04:26:05.769Z,6.87
2022-09-06T04:29:17.504Z,6.95
2022-09-06T04:32:23.155Z,7.07
2022-09-06T04:35:29.429Z,7.18
2022-09-06T04:38:42.348Z,7.27
2022-09-06T04:41:47.982Z,7.38
2022-09-06T04:44:55.751Z,7.47
2022-09-06T04:48:02.434Z,7.54
2022-09-06T04:51:08.614Z,7.63
2022-09-06T04:54:14.465Z,7.72
2022-09-06T04:57:21.566Z,7.85
2022-09-06T05:00:28.239Z,7.96
2022-09-06T05:03:33.846Z,8.09
2022-09-06T05:06:41.924Z,8.20
2022-09-06T05:09:49.409Z,8.29
2022-09-06T05:12:56.224Z,8.41
2022-09-06T05:16:01.701Z,8.53
2022-09-06T05:19:10.377Z,8.66
2022-09-06T05:22:19.202Z,8.80
2022-09-06T05:25:25.186Z,8.93
2022-09-06T05:28:47.806Z,9.07
2022-09-06T05:31:58.137Z,9.21
2022-09-06T05:35:08.665Z,9.36
2022-09-06T05:38:15.060Z,9.49
2022-09-06T05:41:22.032Z,9.64
2022-09-06T05:44:29.614Z,9.74
2022-09-06T05:47:38.540Z,9.84
2022-09-06T05:50:44.055Z,9.93
2022-09-06T05:53:52.099Z,10.09
2022-09-06T05:57:05.113Z,10.24
2022-09-06T06:00:17.274Z,10.41
2022-09-06T06:03:27.200Z,10.53
2022-09-06T06:06:36.822Z,10.68
2022-09-06T06:09:45.981Z,10.82
2022-09-06T06:12:54.833Z,10.95
2022-09-06T06:16:00.948Z,11.12
2022-09-06T06:19:10.099Z,11.26
2022-09-06T06:22:19.933Z,11.43
2022-09-06T06:25:26.390Z,11.58
2022-09-06T06:28:32.371Z,11.71
2022-09-06T06:31:40.179Z,11.82
2022-09-06T06:34:51.612Z,11.96
2022-09-06T06:38:15.962Z,12.10
2022-09-06T06:41:24.180Z,12.31
2022-09-06T06:44:30.573Z,12.48
2022-09-06T06:47:37.182Z,12.59
2022-09-06T06:50:46.374Z,12.70
2022-09-06T06:54:15.161Z,12.80
2022-09-06T06:57:21.606Z,12.96
2022-09-06T07:00:28.361Z,13.07
2022-09-06T07:03:38.697Z,13.11
2022-09-06T07:13:40.348Z,13.57
2022-09-06T07:16:46.617Z,13.66
2022-09-06T07:30:16.858Z,14.21
2022-09-06T07:33:26.231Z,14.30
2022-09-06T07:36:33.368Z,14.34
2022-09-06T07:39:42.313Z,14.45
2022-09-06T07:42:51.628Z,14.63
2022-09-06T07:45:58.747Z,14.76
2022-09-06T07:49:06.039Z,14.88
2022-09-06T07:55:40.721Z,15.05
2022-09-06T07:58:48.295Z,15.20
2022-09-06T08:01:58.894Z,15.38
2022-09-06T08:12:11.295Z,15.88
2022-09-06T08:15:18.317Z,16.08
2022-09-06T08:18:24.663Z,16.16
2022-09-06T08:21:32.828Z,16.32
2022-09-06T08:24:40.858Z,16.44
2022-09-06T08:27:49.043Z,16.56
2022-09-06T08:30:56.663Z,16.58
2022-09-06T08:34:11.561Z,16.66
2022-09-06T08:37:31.881Z,16.68
2022-09-06T08:40:39.156Z,16.72
2022-09-06T08:47:30.492Z,16.97
2022-09-06T08:50:37.880Z,17.08
2022-09-06T08:53:45.800Z,17.13
2022-09-06T08:56:53.619Z,17.25
2022-09-06T09:00:10.436Z,17.42
2022-09-06T09:03:30.701Z,17.52
2022-09-06T09:06:48.664Z,17.57
2022-09-06T09:09:57.662Z,17.56
2022-09-06T09:13:04.441Z,17.60
2022-09-06T09:16:10.375Z,17.58
2022-09-06T09:19:30.880Z,17.68
2022-09-06T09:22:43.460Z,17.84
2022-09-06T09:25:50.659Z,17.99
2022-09-06T09:28:56.945Z,17.97
2022-09-06T09:32:06.276Z,18.03
2022-09-06T09:35:19.429Z,18.03
2022-09-06T09:38:34.459Z,18.05
2022-09-06T09:41:42.559Z,18.14
2022-09-06T09:44:48.430Z,18.21
2022-09-06T09:48:07.441Z,18.29
2022-09-06T09:51:25.459Z,18.39
2022-09-06T09:54:38.532Z,18.51
2022-09-06T09:57:56.827Z,18.68
2022-09-06T10:01:07.682Z,18.81
2022-09-06T10:07:41.800Z,18.74
2022-09-06T10:10:51.568Z,18.68
2022-09-06T10:14:07.459Z,18.65
2022-09-06T10:17:22.270Z,18.69
2022-09-06T10:20:31.496Z,18.77
2022-09-06T10:27:13.512Z,18.85
2022-09-06T10:30:24.440Z,18.82
2022-09-06T10:33:31.984Z,18.89
2022-09-06T10:36:45.073Z,18.99
2022-09-06T10:39:52.926Z,19.15
2022-09-06T10:43:06.304Z,19.17
2022-09-06T10:46:13.192Z,19.26
2022-09-06T10:49:23.153Z,19.32
2022-09-06T10:52:36.120Z,19.40
2022-09-06T10:55:47.354Z,19.33
2022-09-06T11:02:24.778Z,19.52
2022-09-06T11:05:40.461Z,19.47
2022-09-06T11:08:48.081Z,19.40
2022-09-06T11:11:58.157Z,19.39
2022-09-06T11:15:17.666Z,19.50
2022-09-06T11:18:27.612Z,19.62
2022-09-06T11:21:34.727Z,19.65
2022-09-06T11:24:40.908Z,19.70
2022-09-06T11:27:47.079Z,19.80
2022-09-06T11:30:56.002Z,19.92
2022-09-06T11:34:04.288Z,19.91
2022-09-06T11:37:26.402Z,20.02
2022-09-06T11:40:33.017Z,20.14
2022-09-06T11:43:40.693Z,20.18
2022-09-06T11:46:53.898Z,20.19
2022-09-06T11:50:00.993Z,20.16
2022-09-06T11:53:14.785Z,20.11
2022-09-06T11:56:27.041Z,20.12
2022-09-06T12:06:48.354Z,20.25
2022-09-06T12:09:54.098Z,20.25
2022-09-06T12:12:59.652Z,20.19
2022-09-06T12:16:07.613Z,20.19
2022-09-06T12:19:14.440Z,20.30
2022-09-06T12:22:21.036Z,20.46
2022-09-06T12:25:26.624Z,20.52
2022-09-06T12:28:32.829Z,20.61
2022-09-06T12:31:38.723Z,20.69
2022-09-06T12:34:45.520Z,20.78
2022-09-06T12:37:51.651Z,20.86
2022-09-06T12:41:01.249Z,20.88
2022-09-06T12:44:07.727Z,20.68
2022-09-06T12:47:13.468Z,20.50
2022-09-06T12:50:19.788Z,20.29
2022-09-06T12:53:26.673Z,20.14
2022-09-06T12:56:32.957Z,19.99
2022-09-06T12:59:38.696Z,19.86
2022-09-06T13:02:44.528Z,19.91
2022-09-06T13:05:51.746Z,20.17
2022-09-06T13:08:58.206Z,20.26
2022-09-06T13:12:04.798Z,20.37
2022-09-06T13:15:11.733Z,20.27
2022-09-06T13:18:18.084Z,20.34
2022-09-06T13:21:26.310Z,20.18
2022-09-06T13:24:32.018Z,20.14
2022-09-06T13:27:37.836Z,20.08
2022-09-06T13:30:49.660Z,20.11
2022-09-06T13:33:56.995Z,20.27
2022-09-06T13:37:03.557Z,20.22
2022-09-06T13:40:11.841Z,20.30
2022-09-06T13:43:18.373Z,20.31
2022-09-06T13:46:24.570Z,20.31
2022-09-06T13:49:30.480Z,20.18
2022-09-06T13:52:36.529Z,20.03
2022-09-06T13:55:42.518Z,19.92
2022-09-06T13:58:48.009Z,19.97
2022-09-06T14:01:54.104Z,20.12
2022-09-06T14:05:00.580Z,20.20
2022-09-06T14:08:07.200Z,20.29
2022-09-06T14:11:13.526Z,20.23
2022-09-06T14:14:19.539Z,20.16
2022-09-06T14:17:25.085Z,20.13
2022-09-06T14:20:48.014Z,20.11
2022-09-06T14:23:54.558Z,20.12
2022-09-06T14:27:02.119Z,20.06
2022-09-06T14:30:08.955Z,20.01
2022-09-06T14:33:15.744Z,19.88
2022-09-06T14:36:21.141Z,19.79
2022-09-06T14:39:31.100Z,19.71
2022-09-06T14:42:36.900Z,19.79
2022-09-06T14:45:42.579Z,19.93
2022-09-06T14:48:48.545Z,20.06
2022-09-06T14:51:55.656Z,20.24
2022-09-06T14:55:02.757Z,20.29
2022-09-06T14:58:09.317Z,20.33
2022-09-06T15:01:16.790Z,20.36
2022-09-06T15:04:22.916Z,20.36
2022-09-06T15:07:28.892Z,20.32
2022-09-06T15:10:38.236Z,20.25
2022-09-06T15:13:43.910Z,20.25
2022-09-06T15:16:54.724Z,20.27
2022-09-06T15:20:01.424Z,20.27
2022-09-06T15:23:25.072Z,20.20
2022-09-06T15:26:32.013Z,20.18
2022-09-06T15:29:38.363Z,20.24
2022-09-06T15:32:45.084Z,20.18
2022-09-06T15:35:52.190Z,20.22
2022-09-06T15:38:59.728Z,20.64
2022-09-06T15:42:06.456Z,22.25
2022-09-06T15:45:12.780Z,23.71
2022-09-06T15:48:19.228Z,24.95
2022-09-06T15:51:24.925Z,25.85
2022-09-06T15:54:48.577Z,26.36
2022-09-06T15:57:54.032Z,26.99
2022-09-06T16:01:00.218Z,27.23
2022-09-06T16:04:06.086Z,27.10
2022-09-06T16:07:11.992Z,27.01
2022-09-06T16:10:17.782Z,26.92
2022-09-06T16:13:23.978Z,26.83
2022-09-06T16:16:29.937Z,26.72
2022-09-06T16:19:35.759Z,26.75
2022-09-06T16:22:41.227Z,26.92
2022-09-06T16:25:46.829Z,27.04
2022-09-06T16:28:52.737Z,27.20
2022-09-06T16:32:00.067Z,27.21
2022-09-06T16:35:06.095Z,27.06
2022-09-06T16:38:11.989Z,26.81
2022-09-06T16:41:18.309Z,26.51
2022-09-06T16:44:25.235Z,26.27
2022-09-06T16:47:32.007Z,26.08
2022-09-06T16:50:38.527Z,25.96
2022-09-06T16:54:12.896Z,25.85
2022-09-06T16:57:12.528Z,25.46
2022-09-06T17:00:18.437Z,24.37
2022-09-06T17:03:24.339Z,23.46
2022-09-06T17:06:29.972Z,22.58
2022-09-06T17:09:35.752Z,21.79
2022-09-06T17:12:41.733Z,21.09
2022-09-06T17:16:05.463Z,20.51
2022-09-06T17:19:11.101Z,19.93
2022-09-06T17:22:17.022Z,19.53
2022-09-06T17:25:22.815Z,19.18
2022-09-06T17:28:29.119Z,18.83
2022-09-06T17:31:35.883Z,18.52
2022-09-06T17:34:42.073Z,18.24
2022-09-06T17:37:48.926Z,17.97
2022-09-06T17:40:55.402Z,17.72
2022-09-06T17:44:01.208Z,17.50
2022-09-06T17:47:15.049Z,17.27
2022-09-06T17:50:20.515Z,17.04
2022-09-06T17:53:28.826Z,16.85
2022-09-06T17:56:34.782Z,16.65
2022-09-06T17:59:41.097Z,16.45
2022-09-06T18:02:47.760Z,16.29
2022-09-06T18:05:53.568Z,16.11
2022-09-06T18:08:59.645Z,15.95
2022-09-06T18:12:05.185Z,15.79
2022-09-06T18:15:11.741Z,15.65
2022-09-06T18:18:21.104Z,15.51
2022-09-06T18:21:27.095Z,15.38
2022-09-06T18:24:32.823Z,15.23
2022-09-06T18:27:38.520Z,15.10
2022-09-06T18:30:45.106Z,14.97
2022-09-06T18:33:50.912Z,14.85
2022-09-06T18:36:56.930Z,14.72
2022-09-06T18:40:02.873Z,14.60
2022-09-06T18:43:08.953Z,14.51
2022-09-06T18:46:17.470Z,14.42
2022-09-06T18:49:23.717Z,14.33
2022-09-06T18:52:29.798Z,14.23
2022-09-06T18:55:35.915Z,14.12
2022-09-06T18:58:41.570Z,14.00
2022-09-06T19:01:48.253Z,13.85
2022-09-06T19:04:56.122Z,13.71
2022-09-06T19:08:03.087Z,13.59
2022-09-06T19:11:09.299Z,13.49
2022-09-06T19:14:15.093Z,13.41
2022-09-06T19:17:21.034Z,13.32
2022-09-06T19:20:28.017Z,13.22
2022-09-06T19:23:36.801Z,13.13
2022-09-06T19:26:43.530Z,13.04
2022-09-06T19:29:49.842Z,12.95
2022-09-06T19:32:55.749Z,12.88
2022-09-06T19:36:11.503Z,12.81
2022-09-06T19:39:18.679Z,12.74
2022-09-06T19:42:24.428Z,12.68
2022-09-06T19:45:29.938Z,12.63
2022-09-06T19:48:35.496Z,12.61
2022-09-06T19:51:51.029Z,12.51
2022-09-06T19:54:57.002Z,12.43
2022-09-06T19:58:04.445Z,12.33
2022-09-06T20:01:11.894Z,12.25
2022-09-06T20:07:42.286Z,12.13
2022-09-06T20:10:48.104Z,12.04
2022-09-06T20:13:53.841Z,11.97
2022-09-06T20:17:33.828Z,11.88
2022-09-06T20:20:40.580Z,11.78
2022-09-06T20:23:47.257Z,11.71
2022-09-06T20:26:54.559Z,11.66
2022-09-06T20:30:01.547Z,11.60
2022-09-06T20:33:13.910Z,11.55
2022-09-06T20:36:19.443Z,11.51
2022-09-06T20:39:25.506Z,11.52
2022-09-06T20:42:32.435Z,11.51
2022-09-06T20:45:39.362Z,11.55
2022-09-06T20:48:45.345Z,11.57
2022-09-06T20:51:51.052Z,11.54
2022-09-06T20:54:57.048Z,11.47
2022-09-06T21:01:28.654Z,11.34
2022-09-06T21:04:34.258Z,11.36
2022-09-06T21:07:42.568Z,11.39
2022-09-06T21:10:49.101Z,11.44
2022-09-06T21:13:55.968Z,11.48
2022-09-06T21:17:02.777Z,11.50
2022-09-06T21:20:09.018Z,11.52
2022-09-06T21:23:14.928Z,11.52
2022-09-06T21:26:21.761Z,11.53
2022-09-06T21:29:27.767Z,11.52
2022-09-06T21:32:34.344Z,11.49
2022-09-06T21:35:40.897Z,11.46
2022-09-06T21:38:46.590Z,11.42
2022-09-06T21:41:54.890Z,11.35
2022-09-06T21:45:00.537Z,11.27
2022-09-06T21:48:05.960Z,11.16
2022-09-06T21:51:13.651Z,11.04
2022-09-06T21:54:19.436Z,10.93
2022-09-06T21:57:26.496Z,10.83
2022-09-06T22:00:32.668Z,10.74
2022-09-06T22:03:39.150Z,10.63
2022-09-06T22:06:44.711Z,10.56
2022-09-06T22:09:50.403Z,10.46
2022-09-06T22:12:56.161Z,10.40
2022-09-06T22:16:05.644Z,10.32
2022-09-06T22:19:12.914Z,10.24
2022-09-06T22:22:19.058Z,10.18
2022-09-06T22:25:24.401Z,10.11
2022-09-06T22:28:30.472Z,10.02
2022-09-06T22:31:36.580Z,9.94
2022-09-06T22:34:42.643Z,9.89
2022-09-06T22:37:49.004Z,9.82
2022-09-06T22:40:54.808Z,9.74
2022-09-06T22:44:01.125Z,9.70
2022-09-06T22:47:09.612Z,9.64
2022-09-06T22:50:16.120Z,9.60
2022-09-06T22:53:22.249Z,9.53
2022-09-06T22:56:27.749Z,9.48
2022-09-06T22:59:33.856Z,9.42
2022-09-06T23:02:39.418Z,9.39
2022-09-06T23:05:44.971Z,9.37
2022-09-06T23:08:56.244Z,9.31
2022-09-06T23:12:03.767Z,9.26
2022-09-06T23:15:09.404Z,9.22
2022-09-06T23:18:15.159Z,9.18
2022-09-06T23:21:21.320Z,9.15
2022-09-06T23:24:27.359Z,9.11
2022-09-06T23:27:35.536Z,9.07
2022-09-06T23:30:41.421Z,9.05
2022-09-06T23:33:47.050Z,9.02
2022-09-06T23:36:54.200Z,8.99
2022-09-06T23:39:59.710Z,8.96
2022-09-06T23:43:06.813Z,8.96
2022-09-06T23:46:13.293Z,8.93
2022-09-06T23:49:19.913Z,8.91
2022-09-06T23:52:25.897Z,8.90
2022-09-06T23:55:31.657Z,8.88
2022-09-06T23:58:37.578Z,8.85
